logo dgac
Miércoles 22 de Mayo del 2019
Buscar por aerodromo o helipuerto
Ingrese nombre de aeródromo, localidad o designador OACI:
METAR del 21-05-2019 a las 22:00 UTC
METAR SCJO 212200Z 24003KT 9999 OVC020 08/05 Q1028
Viento: dirección 240 grados, velocidad 3 nudos
Visibilidad: 10 km o más
Nubes: Cubierto a 2000 pies sobre el nivel del aeródromo
Temperatura: 8 °C
Rocío: 5 °C
Humedad_relativa: 81%
Presión: 1028 hPa
METAR del 21-05-2019 a las 21:00 UTC
METAR SCJO 212100Z 24005KT 9999 OVC015 08/05 Q1027
Viento: dirección 240 grados, velocidad 5 nudos
Visibilidad: 10 km o más
Nubes: Cubierto a 1500 pies sobre el nivel del aeródromo
Temperatura: 8 °C
Rocío: 5 °C
Humedad_relativa: 81%
Presión: 1027 hPa
METAR del 21-05-2019 a las 20:00 UTC
METAR SCJO 212000Z 24008KT 9999 OVC015 08/06 Q1027
Viento: dirección 240 grados, velocidad 8 nudos
Visibilidad: 10 km o más
Nubes: Cubierto a 1500 pies sobre el nivel del aeródromo
Temperatura: 8 °C
Rocío: 6 °C
Humedad_relativa: 87%
Presión: 1027 hPa
METAR del 21-05-2019 a las 19:00 UTC
METAR SCJO 211900Z 23004KT 9999 OVC012 08/06 Q1028
Viento: dirección 230 grados, velocidad 4 nudos
Visibilidad: 10 km o más
Nubes: Cubierto a 1200 pies sobre el nivel del aeródromo
Temperatura: 8 °C
Rocío: 6 °C
Humedad_relativa: 87%
Presión: 1028 hPa
METAR del 21-05-2019 a las 18:00 UTC
METAR SCJO 211800Z 22006KT 9999 OVC010 07/05 Q1028
Viento: dirección 220 grados, velocidad 6 nudos
Visibilidad: 10 km o más
Nubes: Cubierto a 1000 pies sobre el nivel del aeródromo
Temperatura: 7 °C
Rocío: 5 °C
Humedad_relativa: 87%
Presión: 1028 hPa
METAR del 21-05-2019 a las 18:00 UTC
METAR SCJO 211800Z 22006KT 9999 OVC010 07/05 Q1028
Viento: dirección 220 grados, velocidad 6 nudos
Visibilidad: 10 km o más
Nubes: Cubierto a 1000 pies sobre el nivel del aeródromo
Temperatura: 7 °C
Rocío: 5 °C
Humedad_relativa: 87%
Presión: 1028 hPa
METAR del 21-05-2019 a las 17:00 UTC
METAR SCJO 211700Z 20007KT 9999 OVC008 07/05 Q1029
Viento: dirección 200 grados, velocidad 7 nudos
Visibilidad: 10 km o más
Nubes: Cubierto a 800 pies sobre el nivel del aeródromo
Temperatura: 7 °C
Rocío: 5 °C
Humedad_relativa: 87%
Presión: 1029 hPa
METAR del 21-05-2019 a las 17:00 UTC
METAR SCJO 211700Z 20007KT 9999 OVC008 07/05 Q1029
Viento: dirección 200 grados, velocidad 7 nudos
Visibilidad: 10 km o más
Nubes: Cubierto a 800 pies sobre el nivel del aeródromo
Temperatura: 7 °C
Rocío: 5 °C
Humedad_relativa: 87%
Presión: 1029 hPa
METAR del 21-05-2019 a las 16:00 UTC
METAR SCJO 211600Z 22006KT 7000 -DZ OVC006 06/05 Q1030
Viento: dirección 220 grados, velocidad 6 nudos
Visibilidad: 7000 metros
Débil LLovizna
Nubes: Cubierto a 600 pies sobre el nivel del aeródromo
Temperatura: 6 °C
Rocío: 5 °C
Humedad_relativa: 93%
Presión: 1030 hPa
METAR del 21-05-2019 a las 15:00 UTC
METAR SCJO 211500Z 20003KT 5000 -DZ OVC005 06/06 Q1030
Viento: dirección 200 grados, velocidad 3 nudos
Visibilidad: 5000 metros
Débil LLovizna
Nubes: Cubierto a 500 pies sobre el nivel del aeródromo
Temperatura: 6 °C
Rocío: 6 °C
Humedad_relativa: 100%
Presión: 1030 hPa